Time;durP1;ratioP1;P1;durP2;ratioP2;P2;SDS_P1;SDS_P2;PMS_P1;PMS_P2;Temp;Humidity;BMP_temperature;BMP_pressure;BME280_temperature;BME280_humidity;BME280_pressure;Samples;Min_cycle;Max_cycle;Signal;HPM_P1;HPM_P2
2023/04/12 00:00:59;;;;;;;0.47;0.47;;;;;;;7.13;100.00;99587.81;6111057;23;20005;-94
2023/04/12 00:03:25;;;;;;;0.10;0.10;;;;;;;7.10;100.00;99579.59;6134595;23;20028;-95
2023/04/12 00:05:54;;;;;;;0.05;0.05;;;;;;;7.04;100.00;99565.53;6134147;23;20017;-96
2023/04/12 00:08:25;;;;;;;0.00;0.00;;;;;;;7.17;100.00;99591.28;6133615;23;20013;-95
2023/04/12 00:10:51;;;;;;;1.48;0.22;;;;;;;7.25;100.00;99606.47;6109270;23;20021;-95
2023/04/12 00:13:17;;;;;;;0.00;0.00;;;;;;;7.14;100.00;99608.66;6132274;23;20043;-95
2023/04/12 00:15:43;;;;;;;3.10;0.50;;;;;;;6.96;100.00;99594.44;6107359;23;20032;-96
2023/04/12 00:18:09;;;;;;;0.00;0.00;;;;;;;7.10;100.00;99626.50;6107766;23;20025;-96
2023/04/12 00:20:35;;;;;;;0.00;0.00;;;;;;;6.88;100.00;99590.25;6108845;23;20021;-96
2023/04/12 00:23:01;;;;;;;0.00;0.00;;;;;;;6.74;100.00;99576.75;6132306;23;20266;-96
2023/04/12 00:25:26;;;;;;;0.00;0.00;;;;;;;6.85;100.00;99599.38;6135106;23;20015;-96
2023/04/12 00:27:52;;;;;;;0.20;0.20;;;;;;;6.77;100.00;99592.44;6134236;23;20127;-96
2023/04/12 00:30:20;;;;;;;0.00;0.00;;;;;;;6.69;100.00;99591.00;6111074;23;20020;-95
2023/04/12 00:32:46;;;;;;;0.00;0.00;;;;;;;6.46;100.00;99570.56;6134851;23;20020;-95
2023/04/12 00:35:12;;;;;;;0.00;0.00;;;;;;;6.38;100.00;99569.13;6133421;23;20116;-95
2023/04/12 00:37:38;;;;;;;0.50;0.40;;;;;;;6.30;100.00;99564.94;6111081;23;20021;-95
2023/04/12 00:40:06;;;;;;;0.00;0.00;;;;;;;6.19;100.00;99564.31;6133985;23;20005;-94
2023/04/12 00:42:34;;;;;;;0.00;0.00;;;;;;;6.17;100.00;99569.47;6111373;23;20017;-94
2023/04/12 00:45:00;;;;;;;0.70;0.30;;;;;;;6.03;100.00;99561.44;6134131;23;20031;-95
2023/04/12 00:47:28;;;;;;;0.00;0.00;;;;;;;5.89;100.00;99558.91;6134740;23;20032;-96
2023/04/12 00:49:54;;;;;;;0.00;0.00;;;;;;;6.13;100.00;99610.06;6111452;23;20060;-96
2023/04/12 00:52:22;;;;;;;1.95;0.38;;;;;;;5.99;100.00;99596.50;6135265;23;20040;-96
2023/04/12 00:54:48;;;;;;;0.00;0.00;;;;;;;5.71;100.00;99578.41;6135023;23;20010;-96
2023/04/12 00:57:14;;;;;;;0.00;0.00;;;;;;;5.61;100.00;99566.38;6140304;23;20070;-96
2023/04/12 00:59:40;;;;;;;0.00;0.00;;;;;;;5.81;100.00;99618.78;6139256;23;20017;-96
2023/04/12 01:02:06;;;;;;;0.00;0.00;;;;;;;5.52;100.00;99579.88;6119663;23;20443;-95
2023/04/12 01:23:42;;;;;;;0.00;0.00;;;;;;;5.69;100.00;99615.81;6163626;23;20514;-95
2023/04/12 01:26:16;;;;;;;0.00;0.00;;;;;;;5.60;100.00;99602.53;6113217;23;20469;-96
2023/04/12 01:28:43;;;;;;;0.00;0.00;;;;;;;5.58;100.00;99611.22;6137266;23;20443;-96
2023/04/12 01:31:11;;;;;;;0.00;0.00;;;;;;;5.44;100.00;99594.91;6140730;23;20040;-95
2023/04/12 01:33:38;;;;;;;0.00;0.00;;;;;;;5.48;100.00;99601.13;6120738;23;20020;-96
2023/04/12 01:36:10;;;;;;;0.45;0.38;;;;;;;5.42;100.00;99613.78;6139986;23;20351;-96
2023/04/12 01:38:38;;;;;;;0.00;0.00;;;;;;;5.42;100.00;99602.03;6114509;23;20089;-96
2023/04/12 01:41:04;;;;;;;0.00;0.00;;;;;;;5.15;100.00;99564.22;6113213;23;20015;-96
2023/04/12 01:43:29;;;;;;;0.00;0.00;;;;;;;5.05;100.00;99559.66;6114124;23;20044;-95
2023/04/12 01:45:55;;;;;;;0.20;0.20;;;;;;;4.90;100.00;99538.22;6140496;23;20009;-96
2023/04/12 01:48:21;;;;;;;0.00;0.00;;;;;;;4.90;100.00;99539.00;6119891;23;20013;-96
2023/04/12 01:50:50;;;;;;;0.10;0.10;;;;;;;5.31;100.00;99606.84;6146191;23;20492;-95
2023/04/12 01:53:28;;;;;;;0.00;0.00;;;;;;;4.87;100.00;99534.34;6145598;23;20016;-96
2023/04/12 01:55:58;;;;;;;0.00;0.00;;;;;;;5.04;100.00;99566.34;6120819;23;20013;-95
2023/04/12 01:58:24;;;;;;;0.00;0.00;;;;;;;5.16;100.00;99570.50;6120472;23;20060;-95
2023/04/12 02:00:51;;;;;;;0.00;0.00;;;;;;;4.88;100.00;99530.41;6116039;23;20044;-95
2023/04/12 02:03:19;;;;;;;0.00;0.00;;;;;;;4.91;100.00;99534.28;6114783;23;20040;-96
2023/04/12 02:05:45;;;;;;;0.00;0.00;;;;;;;4.91;100.00;99534.28;6163422;23;20069;-96
2023/04/12 02:08:11;;;;;;;0.00;0.00;;;;;;;4.83;100.00;99524.56;6114949;23;20041;-96
2023/04/12 02:10:39;;;;;;;0.00;0.00;;;;;;;5.04;100.00;99576.56;6115169;23;20005;-95
2023/04/12 02:13:05;;;;;;;0.08;0.08;;;;;;;4.67;100.00;99522.41;6137839;23;20009;-95
2023/04/12 02:15:31;;;;;;;0.00;0.00;;;;;;;4.84;100.00;99567.34;6112530;23;20017;-96
2023/04/12 02:17:58;;;;;;;0.00;0.00;;;;;;;4.43;100.00;99532.47;6140416;23;20016;-96
2023/04/12 02:20:24;;;;;;;0.00;0.00;;;;;;;4.56;100.00;99550.00;6138372;23;20462;-96
2023/04/12 02:22:50;;;;;;;0.00;0.00;;;;;;;4.40;100.00;99544.28;6112598;23;20024;-95
2023/04/12 02:25:16;;;;;;;0.00;0.00;;;;;;;4.33;100.00;99535.31;6142526;23;20009;-96
2023/04/12 02:27:47;;;;;;;0.22;0.22;;;;;;;4.27;100.00;99528.72;6130354;23;20008;-95
2023/04/12 02:30:14;;;;;;;0.00;0.00;;;;;;;4.50;100.00;99565.34;6135636;23;20001;-96
2023/04/12 02:32:44;;;;;;;0.08;0.08;;;;;;;4.15;100.00;99528.03;6160194;23;20415;-95
2023/04/12 02:35:17;;;;;;;0.00;0.00;;;;;;;4.08;100.00;99516.34;6161800;23;20097;-95
2023/04/12 02:37:45;;;;;;;0.25;0.25;;;;;;;4.30;100.00;99550.63;6182252;23;20004;-96
2023/04/12 02:40:12;;;;;;;0.45;0.45;;;;;;;4.28;100.00;99547.53;6133492;23;20072;-96
2023/04/12 02:42:38;;;;;;;0.00;0.00;;;;;;;4.19;100.00;99541.72;6159860;23;19993;-96
2023/04/12 02:45:04;;;;;;;0.00;0.00;;;;;;;4.22;100.00;99560.13;6136110;23;20021;-95
2023/04/12 02:47:30;;;;;;;0.08;0.08;;;;;;;4.00;100.00;99523.06;6186495;23;20021;-95
2023/04/12 02:49:59;;;;;;;0.10;0.10;;;;;;;3.95;100.00;99520.75;6128891;23;20009;-96
2023/04/12 02:52:24;;;;;;;0.03;0.03;;;;;;;4.09;100.00;99550.81;6112294;23;20013;-95
2023/04/12 02:55:03;;;;;;;0.00;0.00;;;;;;;4.32;100.00;99583.97;6137735;23;20351;-96
2023/04/12 02:57:29;;;;;;;0.10;0.10;;;;;;;3.85;100.00;99521.59;6110469;23;20020;-96
2023/04/12 02:59:54;;;;;;;0.00;0.00;;;;;;;3.64;100.00;99501.38;6135143;23;20021;-96
2023/04/12 03:02:24;;;;;;;0.00;0.00;;;;;;;3.99;100.00;99568.94;6159299;23;20017;-95
2023/04/12 03:04:55;;;;;;;0.10;0.10;;;;;;;3.78;100.00;99518.94;6135844;23;20443;-95
2023/04/12 03:07:30;;;;;;;0.13;0.13;;;;;;;4.04;100.00;99568.53;6114464;23;20040;-96
2023/04/12 03:09:55;;;;;;;0.00;0.00;;;;;;;4.02;100.00;99554.41;6108486;23;20042;-95
2023/04/12 03:12:23;;;;;;;0.00;0.00;;;;;;;3.85;100.00;99544.34;6109293;23;20009;-96
2023/04/12 03:15:07;;;;;;;;;;;;;;;4.05;100.00;99585.75;6136117;23;20013;-96
2023/04/12 03:17:33;;;;;;;0.20;0.20;;;;;;;3.61;100.00;99521.41;6108104;23;19923;-95
2023/04/12 03:20:08;;;;;;;0.00;0.00;;;;;;;3.68;100.00;99537.78;6108963;23;20060;-94
2023/04/12 03:22:35;;;;;;;0.00;0.00;;;;;;;3.68;100.00;99515.84;6110776;23;20032;-96
2023/04/12 03:25:05;;;;;;;0.10;0.10;;;;;;;3.73;100.00;99526.41;6115729;23;20072;-95
2023/04/12 03:27:31;;;;;;;0.10;0.10;;;;;;;3.76;100.00;99522.84;6118104;23;20017;-95
2023/04/12 03:29:57;;;;;;;0.00;0.00;;;;;;;3.74;100.00;99524.44;6118534;23;20017;-96
2023/04/12 03:32:24;;;;;;;0.00;0.00;;;;;;;3.64;100.00;99523.31;6121773;23;20013;-96
2023/04/12 03:34:50;;;;;;;0.00;0.00;;;;;;;3.60;100.00;99513.59;6119137;23;20041;-96
2023/04/12 03:37:21;;;;;;;0.00;0.00;;;;;;;3.52;100.00;99507.34;6126496;23;20009;-96
2023/04/12 03:39:47;;;;;;;0.20;0.15;;;;;;;3.39;100.00;99491.78;6124588;23;20017;-96
2023/04/12 03:42:18;;;;;;;0.35;0.35;;;;;;;3.37;100.00;99497.66;6125063;23;20431;-96
2023/04/12 03:44:45;;;;;;;0.00;0.00;;;;;;;3.37;100.00;99505.88;6122516;23;20052;-95
2023/04/12 03:47:12;;;;;;;0.00;0.00;;;;;;;3.39;100.00;99489.84;6123426;23;20040;-96
2023/04/12 03:49:38;;;;;;;0.00;0.00;;;;;;;3.29;100.00;99498.88;6126369;23;20073;-95
2023/04/12 03:52:15;;;;;;;0.20;0.20;;;;;;;3.23;100.00;99484.84;6156208;23;20016;-96
2023/04/12 05:40:48;;;;;;;0.35;0.35;;;;;;;7.24;100.00;99558.00;6209986;23;20048;-89
2023/04/12 05:43:19;;;;;;;0.00;0.00;;;;;;;7.41;100.00;99556.09;6130320;23;20037;-90
2023/04/12 05:45:45;;;;;;;0.00;0.00;;;;;;;7.56;100.00;99560.13;6132897;23;20108;-90
2023/04/12 05:48:10;;;;;;;0.13;0.13;;;;;;;7.70;100.00;99557.03;6128959;23;20024;-90
2023/04/12 05:50:36;;;;;;;0.00;0.00;;;;;;;7.94;100.00;99552.13;6129888;23;20462;-90
2023/04/12 05:53:02;;;;;;;0.03;0.03;;;;;;;8.07;100.00;99560.50;6130079;23;20151;-90
2023/04/12 05:55:30;;;;;;;3.25;1.13;;;;;;;8.12;100.00;99554.47;6127228;23;20005;-90
2023/04/12 05:57:57;;;;;;;6.60;0.73;;;;;;;8.26;100.00;99549.34;6143556;23;20027;-90
2023/04/12 06:00:23;;;;;;;0.00;0.00;;;;;;;8.39;100.00;99550.25;6173390;23;20016;-91
2023/04/12 06:02:51;;;;;;;0.00;0.00;;;;;;;8.65;100.00;99558.69;6157321;23;20111;-90
2023/04/12 06:05:17;;;;;;;0.10;0.10;;;;;;;8.71;96.89;99559.69;6185450;23;20124;-91
2023/04/12 06:07:47;;;;;;;0.00;0.00;;;;;;;8.67;94.86;99540.44;6160768;23;20020;-91
2023/04/12 06:10:17;;;;;;;0.22;0.05;;;;;;;8.92;93.08;99561.88;6159570;23;20457;-91
2023/04/12 06:12:46;;;;;;;0.45;0.45;;;;;;;9.09;93.25;99568.13;6135479;23;20052;-90
2023/04/12 06:15:12;;;;;;;0.20;0.20;;;;;;;9.20;94.14;99555.53;6133960;23;20043;-90
2023/04/12 06:17:38;;;;;;;0.00;0.00;;;;;;;9.57;94.32;99553.28;6160484;23;20021;-90
2023/04/12 06:20:07;;;;;;;1.17;0.88;;;;;;;9.76;94.68;99552.28;6135018;23;20345;-91
2023/04/12 06:22:33;;;;;;;0.10;0.10;;;;;;;9.71;94.13;99538.97;6160829;23;20100;-92
2023/04/12 06:24:58;;;;;;;0.00;0.00;;;;;;;9.98;92.53;99552.41;6135021;23;20043;-91
2023/04/12 06:27:24;;;;;;;0.52;0.52;;;;;;;10.00;86.51;99531.34;6135719;23;20040;-90
2023/04/12 06:29:50;;;;;;;1.15;0.28;;;;;;;9.89;85.80;99510.72;6133932;23;20099;-91
2023/04/12 06:32:16;;;;;;;0.00;0.00;;;;;;;9.91;82.28;99558.19;6135508;23;20445;-90
2023/04/12 06:34:42;;;;;;;0.00;0.00;;;;;;;9.69;80.58;99536.69;6160182;23;20054;-91
2023/04/12 06:37:12;;;;;;;0.30;0.30;;;;;;;9.96;81.01;99550.06;6185314;23;20453;-90
2023/04/12 06:39:37;;;;;;;0.00;0.00;;;;;;;10.24;80.03;99540.84;6159872;23;20043;-89
2023/04/12 06:42:03;;;;;;;0.00;0.00;;;;;;;10.39;75.87;99526.53;6160006;23;20020;-89
2023/04/12 06:44:29;;;;;;;0.00;0.00;;;;;;;10.70;75.58;99546.84;6184421;23;20013;-89
2023/04/12 06:46:54;;;;;;;0.38;0.38;;;;;;;10.82;74.85;99548.78;6135400;23;20557;-91
2023/04/12 06:49:20;;;;;;;0.10;0.10;;;;;;;11.01;73.41;99539.38;6158861;23;20012;-90
2023/04/12 06:51:47;;;;;;;0.00;0.00;;;;;;;11.13;73.26;99540.53;6160185;23;20021;-88
2023/04/12 06:54:12;;;;;;;0.00;0.00;;;;;;;11.20;71.75;99501.41;6159778;23;20306;-88
2023/04/12 06:56:38;;;;;;;0.00;0.00;;;;;;;11.41;69.30;99533.13;6185063;23;20015;-88
2023/04/12 06:59:07;;;;;;;0.00;0.00;;;;;;;11.48;69.90;99522.53;6134257;23;20098;-91
2023/04/12 07:01:33;;;;;;;0.10;0.10;;;;;;;11.83;64.49;99531.50;6185388;23;20012;-89
2023/04/12 07:03:59;;;;;;;0.00;0.00;;;;;;;11.99;64.91;99530.47;6134297;23;20448;-89
2023/04/12 07:06:24;;;;;;;0.13;0.13;;;;;;;11.81;65.97;99522.09;6160317;23;20052;-89
2023/04/12 07:08:50;;;;;;;0.00;0.00;;;;;;;11.93;63.18;99526.75;6159237;23;20017;-88
2023/04/12 07:11:15;;;;;;;0.20;0.20;;;;;;;12.18;62.58;99528.50;6133849;23;20017;-89
2023/04/12 07:13:41;;;;;;;0.00;0.00;;;;;;;11.91;61.23;99507.75;6158904;23;20352;-89
2023/04/12 07:16:07;;;;;;;0.00;0.00;;;;;;;11.73;61.16;99499.34;6159665;23;20013;-88
2023/04/12 07:18:32;;;;;;;0.00;0.00;;;;;;;11.87;60.80;99529.38;6134803;23;20013;-89
2023/04/12 07:20:58;;;;;;;0.45;0.45;;;;;;;12.08;59.91;99530.50;6135484;23;20012;-89
2023/04/12 07:23:24;;;;;;;0.03;0.03;;;;;;;12.28;58.02;99527.31;6159421;23;20019;-89
2023/04/12 07:25:50;;;;;;;0.35;0.35;;;;;;;12.36;54.81;99531.34;6160045;23;20004;-90
2023/04/12 07:28:17;;;;;;;0.00;0.00;;;;;;;12.37;55.04;99530.09;6134310;23;20036;-89
2023/04/12 07:30:43;;;;;;;0.15;0.05;;;;;;;12.27;55.85;99517.41;6159480;23;20016;-90
2023/04/12 07:33:08;;;;;;;0.10;0.10;;;;;;;12.55;54.06;99525.34;6158793;23;20013;-89
2023/04/12 07:35:38;;;;;;;0.15;0.08;;;;;;;12.82;53.09;99516.19;6135202;23;20000;-89
2023/04/12 07:38:57;;;;;;;;;;;;;;;;;;;;;
2023/04/12 07:41:47;;;;;;;1.45;0.80;;;;;;;13.07;48.42;99464.97;6210909;23;20099;-90
2023/04/12 07:45:07;;;;;;;0.28;0.28;;;;;;;13.36;47.02;99468.03;6209730;23;20019;-90
2023/04/12 07:48:10;;;;;;;0.20;0.10;;;;;;;13.65;47.46;99491.75;6206239;23;20079;-90
2023/04/12 07:50:41;;;;;;;0.47;0.45;;;;;;;13.33;48.23;99463.41;6162017;23;20353;-90
2023/04/12 07:53:37;;;;;;;0.10;0.10;;;;;;;13.95;47.02;99490.69;6184239;23;20048;-90
2023/04/12 07:58:51;;;;;;;0.30;0.30;;;;;;;13.58;45.22;99431.56;6152587;23;20024;-89
2023/04/12 08:01:17;;;;;;;0.00;0.00;;;;;;;14.11;46.50;99456.03;6210610;23;20016;-90
2023/04/12 08:03:43;;;;;;;0.32;0.32;;;;;;;14.17;45.98;99460.47;6211091;23;20009;-90
2023/04/12 08:06:08;;;;;;;0.00;0.00;;;;;;;14.35;44.59;99465.19;6158753;23;20092;-90
2023/04/12 08:08:36;;;;;;;0.20;0.20;;;;;;;14.92;43.82;99482.53;6158975;23;20016;-89
2023/04/12 08:11:10;;;;;;;0.45;0.30;;;;;;;14.71;41.72;99436.97;6160939;23;20211;-90
2023/04/12 08:13:36;;;;;;;0.00;0.00;;;;;;;14.55;42.96;99478.53;6210346;23;20016;-90
2023/04/12 08:16:02;;;;;;;0.10;0.10;;;;;;;14.46;43.02;99471.78;6212962;23;20024;-90
2023/04/12 08:18:28;;;;;;;0.08;0.08;;;;;;;14.33;43.30;99467.66;6186129;23;20023;-91
2023/04/12 08:20:55;;;;;;;0.00;0.00;;;;;;;13.78;43.73;99470.03;6162061;23;20021;-89
2023/04/12 08:23:20;;;;;;;1.02;0.82;;;;;;;13.51;43.53;99459.75;6161791;23;20333;-90
2023/04/12 08:25:46;;;;;;;0.40;0.10;;;;;;;13.36;44.76;99417.09;6137318;23;20080;-89
2023/04/12 08:28:12;;;;;;;0.00;0.00;;;;;;;13.55;44.75;99422.13;6135829;23;20017;-90
2023/04/12 08:30:37;;;;;;;0.10;0.10;;;;;;;13.96;45.35;99461.53;6185767;23;20394;-89
2023/04/12 08:33:03;;;;;;;0.10;0.10;;;;;;;14.17;44.14;99460.47;6137183;23;20012;-91
2023/04/12 08:35:29;;;;;;;0.10;0.10;;;;;;;14.22;44.58;99456.28;6161227;23;20104;-89
2023/04/12 08:37:54;;;;;;;0.95;0.52;;;;;;;14.21;42.95;99454.72;6161820;23;20009;-90
2023/04/12 08:40:20;;;;;;;0.10;0.10;;;;;;;14.19;43.24;99452.44;6161236;23;20063;-89
2023/04/12 08:42:46;;;;;;;3.10;0.40;;;;;;;14.01;43.64;99441.38;6161504;23;20020;-89
2023/04/12 08:45:12;;;;;;;0.38;0.35;;;;;;;14.16;43.13;99453.34;6160491;23;20064;-90
2023/04/12 08:47:40;;;;;;;0.10;0.10;;;;;;;13.86;43.30;99430.19;6213333;23;19997;-90
2023/04/12 08:50:08;;;;;;;0.10;0.10;;;;;;;13.97;43.37;99424.81;6135673;23;20442;-89
2023/04/12 08:52:35;;;;;;;0.55;0.55;;;;;;;14.06;42.76;99431.59;6136946;23;20464;-90
2023/04/12 08:55:11;;;;;;;0.00;0.00;;;;;;;14.07;41.56;99430.34;6161549;23;20000;-90
2023/04/12 08:57:40;;;;;;;0.80;0.38;;;;;;;14.21;41.17;99418.47;6135775;23;20111;-90
2023/04/12 09:00:07;;;;;;;0.15;0.15;;;;;;;14.63;42.03;99421.88;6185109;23;20017;-90
2023/04/12 09:02:35;;;;;;;0.30;0.30;;;;;;;15.03;42.35;99420.53;6186863;23;20023;-89
2023/04/12 09:05:00;;;;;;;0.32;0.32;;;;;;;15.17;41.58;99403.75;6212088;23;20012;-90
2023/04/12 09:07:27;;;;;;;0.10;0.10;;;;;;;15.17;41.62;99400.94;6185595;23;20021;-90
2023/04/12 09:09:53;;;;;;;0.55;0.10;;;;;;;15.15;40.78;99411.84;6211508;23;20004;-90
2023/04/12 09:12:21;;;;;;;0.30;0.30;;;;;;;14.55;41.44;99390.00;6161806;23;20012;-90
2023/04/12 09:14:47;;;;;;;0.10;0.10;;;;;;;14.63;42.50;99412.72;6135894;23;20104;-90
2023/04/12 09:17:22;;;;;;;0.13;0.13;;;;;;;14.61;40.57;99421.56;6161483;23;20472;-90
2023/04/12 09:19:48;;;;;;;0.10;0.10;;;;;;;14.93;40.21;99423.41;6160423;23;20020;-90
2023/04/12 09:22:13;;;;;;;0.00;0.00;;;;;;;15.09;38.55;99388.63;6161100;23;20376;-90
2023/04/12 09:24:57;;;;;;;0.17;0.17;;;;;;;14.99;38.64;99387.22;6161717;23;20013;-89
2023/04/12 09:27:24;;;;;;;0.20;0.20;;;;;;;15.17;39.68;99405.75;6136034;23;20067;-90
2023/04/12 09:29:53;;;;;;;0.93;0.88;;;;;;;15.05;38.61;99381.69;6134947;23;20421;-90
2023/04/12 09:32:26;;;;;;;0.32;0.20;;;;;;;15.67;39.39;99396.16;6162005;23;20048;-89
2023/04/12 09:34:56;;;;;;;0.00;0.00;;;;;;;16.11;39.11;99406.38;6160643;23;20031;-90
2023/04/12 09:37:23;;;;;;;0.57;0.38;;;;;;;16.26;38.42;99409.84;6135758;23;20017;-90
2023/04/12 09:39:59;;;;;;;0.05;0.05;;;;;;;16.33;37.89;99398.25;6159727;23;20016;-90
2023/04/12 09:42:25;;;;;;;0.00;0.00;;;;;;;16.22;37.97;99393.28;6135933;23;20021;-90
2023/04/12 09:44:52;;;;;;;0.00;0.00;;;;;;;16.10;37.31;99383.22;6159670;23;20109;-91
2023/04/12 09:47:18;;;;;;;0.15;0.13;;;;;;;16.05;37.80;99391.56;6136510;23;20353;-90
2023/04/12 09:49:43;;;;;;;0.08;0.08;;;;;;;16.27;37.16;99372.22;6136139;23;20016;-90
2023/04/12 09:52:11;;;;;;;0.00;0.00;;;;;;;16.23;37.15;99332.50;6136105;23;20039;-89
2023/04/12 09:54:44;;;;;;;0.10;0.10;;;;;;;17.03;36.76;99364.31;6135863;23;20365;-90
2023/04/12 09:57:11;;;;;;;0.28;0.28;;;;;;;17.01;34.60;99333.25;6136315;23;20024;-90
2023/04/12 09:59:39;;;;;;;0.10;0.10;;;;;;;17.65;36.00;99353.06;6135099;23;20445;-89
2023/04/12 10:02:17;;;;;;;0.25;0.25;;;;;;;17.81;34.55;99339.63;6160328;23;20100;-90
2023/04/12 10:04:43;;;;;;;0.00;0.00;;;;;;;16.85;35.55;99339.47;6159453;23;20656;-90
2023/04/12 10:07:10;;;;;;;0.00;0.00;;;;;;;16.64;35.98;99333.19;6136173;23;20104;-90
2023/04/12 10:09:40;;;;;;;0.00;0.00;;;;;;;16.49;36.41;99316.50;6160194;23;20023;-90
2023/04/12 10:12:07;;;;;;;0.20;0.20;;;;;;;16.37;36.41;99303.66;6160855;23;20028;-89
2023/04/12 10:14:32;;;;;;;0.22;0.22;;;;;;;16.59;37.79;99331.09;6135241;23;20023;-91
2023/04/12 10:17:00;;;;;;;0.47;0.28;;;;;;;16.54;36.79;99329.00;6158883;23;20009;-90
2023/04/12 10:19:27;;;;;;;0.20;0.20;;;;;;;16.08;36.97;99335.41;6135062;23;20087;-90
2023/04/12 10:21:54;;;;;;;0.70;0.65;;;;;;;15.89;36.70;99297.03;6135101;23;20024;-89
2023/04/12 10:24:27;;;;;;;0.32;0.13;;;;;;;15.92;36.28;99324.00;6184961;23;20021;-91
2023/04/12 10:26:54;;;;;;;0.00;0.00;;;;;;;16.22;36.65;99330.94;6136107;23;20012;-89
2023/04/12 10:29:30;;;;;;;0.10;0.10;;;;;;;16.44;36.13;99316.44;6160309;23;20008;-90
2023/04/12 10:31:58;;;;;;;0.08;0.08;;;;;;;16.56;35.41;99316.03;6136128;23;20027;-90
2023/04/12 10:34:28;;;;;;;0.00;0.00;;;;;;;16.66;35.45;99319.47;6134867;23;20036;-90
2023/04/12 10:36:57;;;;;;;0.77;0.77;;;;;;;16.61;35.52;99284.56;6135967;23;20352;-90
2023/04/12 10:39:41;;;;;;;0.20;0.20;;;;;;;16.90;36.18;99302.34;6184567;23;20345;-90
2023/04/12 10:42:18;;;;;;;0.15;0.15;;;;;;;17.65;36.13;99308.19;6135717;23;20020;-90
2023/04/12 10:44:45;;;;;;;0.10;0.10;;;;;;;18.12;33.23;99286.16;6159393;23;20016;-90
2023/04/12 10:47:10;;;;;;;0.20;0.20;;;;;;;18.77;31.51;99277.56;6159786;23;20013;-90
2023/04/12 10:49:38;;;;;;;0.00;0.00;;;;;;;19.03;29.93;99297.72;6159141;23;20048;-91
2023/04/12 10:52:13;;;;;;;0.08;0.08;;;;;;;18.99;30.72;99283.19;6160489;23;20171;-91
2023/04/12 10:54:39;;;;;;;0.17;0.15;;;;;;;19.30;29.84;99243.50;6185214;23;20448;-90
2023/04/12 10:57:06;;;;;;;0.50;0.50;;;;;;;19.88;30.58;99268.88;6185435;23;20017;-89
2023/04/12 10:59:53;;;;;;;0.00;0.00;;;;;;;20.38;29.06;99272.16;6160583;23;20094;-90
2023/04/12 11:02:18;;;;;;;0.22;0.22;;;;;;;20.34;28.77;99243.50;6184156;23;20051;-91
2023/04/12 11:05:08;;;;;;;1.25;0.63;;;;;;;18.96;29.04;99262.50;6186772;23;20019;-91
2023/04/12 11:08:06;;;;;;;0.10;0.10;;;;;;;19.07;30.29;99248.41;6148571;23;20020;-90
2023/04/12 11:10:49;;;;;;;0.38;0.22;;;;;;;19.16;30.42;99243.78;6142100;23;20012;-90
2023/04/12 11:13:20;;;;;;;0.00;0.00;;;;;;;19.34;29.78;99241.19;6159666;23;20160;-90
2023/04/12 11:15:46;;;;;;;0.20;0.15;;;;;;;19.01;29.84;99227.19;6159469;23;20060;-90
2023/04/12 11:18:11;;;;;;;1.48;0.20;;;;;;;19.42;30.32;99253.44;6135298;23;20441;-90
2023/04/12 11:20:39;;;;;;;0.13;0.10;;;;;;;19.43;29.00;99249.38;6133999;23;20467;-91
2023/04/12 11:23:05;;;;;;;0.08;0.08;;;;;;;19.40;30.74;99241.16;6184995;23;20392;-90
2023/04/12 11:25:30;;;;;;;0.38;0.30;;;;;;;19.53;29.17;99244.97;6159184;23;20012;-91
2023/04/12 11:27:56;;;;;;;0.35;0.10;;;;;;;19.24;29.22;99225.88;6160144;23;20061;-91
2023/04/12 11:30:25;;;;;;;0.15;0.15;;;;;;;19.49;29.27;99233.22;6159792;23;20028;-90
2023/04/12 11:32:51;;;;;;;0.00;0.00;;;;;;;19.38;29.67;99210.75;6184988;23;20337;-91
2023/04/12 11:35:19;;;;;;;0.00;0.00;;;;;;;19.27;28.68;99221.25;6158731;23;20369;-91
2023/04/12 11:37:44;;;;;;;0.10;0.10;;;;;;;19.31;28.57;99228.16;6184608;23;20345;-90
2023/04/12 11:40:10;;;;;;;0.40;0.40;;;;;;;19.24;29.02;99178.09;6184217;23;20008;-92
2023/04/12 11:42:38;;;;;;;0.65;0.40;;;;;;;19.39;28.79;99186.97;6184458;23;20449;-89
2023/04/12 11:45:06;;;;;;;0.30;0.08;;;;;;;19.43;27.95;99187.50;6133881;23;20016;-89
2023/04/12 11:47:31;;;;;;;0.22;0.22;;;;;;;19.22;28.53;99188.31;6184640;23;20353;-89
2023/04/12 11:49:58;;;;;;;0.10;0.10;;;;;;;19.61;28.27;99213.50;6159006;23;20023;-90
2023/04/12 11:52:31;;;;;;;0.30;0.25;;;;;;;19.17;27.58;99184.22;6159476;23;20017;-91
2023/04/12 11:55:00;;;;;;;1.45;0.80;;;;;;;19.01;27.23;99176.63;6211124;23;20012;-91
2023/04/12 11:57:27;;;;;;;0.20;0.20;;;;;;;19.17;27.66;99172.97;6183604;23;20008;-90
2023/04/12 11:59:56;;;;;;;0.10;0.10;;;;;;;19.53;27.54;99199.97;6156489;23;20024;-91
2023/04/12 12:02:21;;;;;;;0.00;0.00;;;;;;;19.61;27.57;99188.19;6157424;23;20341;-92
2023/04/12 12:04:47;;;;;;;0.00;0.00;;;;;;;19.68;28.54;99171.50;6209447;23;20015;-91
2023/04/12 12:07:14;;;;;;;0.10;0.10;;;;;;;19.66;28.34;99145.16;6209118;23;20021;-91
2023/04/12 12:09:41;;;;;;;0.10;0.05;;;;;;;19.60;29.44;99170.53;6182664;23;20036;-91
2023/04/12 12:12:09;;;;;;;0.00;0.00;;;;;;;19.30;29.04;99166.81;6181765;23;20020;-90
2023/04/12 12:14:35;;;;;;;0.28;0.28;;;;;;;19.18;29.63;99168.13;6207604;23;20020;-91
2023/04/12 12:17:01;;;;;;;0.10;0.10;;;;;;;19.32;29.71;99162.22;6182738;23;20070;-91
2023/04/12 12:19:36;;;;;;;0.57;0.40;;;;;;;18.95;30.89;99122.50;6181566;23;20464;-93
2023/04/12 12:22:13;;;;;;;0.45;0.45;;;;;;;19.31;30.27;99132.56;6183081;23;20392;-93
2023/04/12 12:24:48;;;;;;;0.25;0.25;;;;;;;19.47;29.91;99140.16;6207443;23;20023;-91
2023/04/12 12:27:18;;;;;;;0.45;0.45;;;;;;;19.87;30.53;99144.25;6181220;23;20013;-91
2023/04/12 12:29:48;;;;;;;1.00;0.90;;;;;;;19.98;29.92;99138.56;6155881;23;20020;-91
2023/04/12 12:32:14;;;;;;;0.47;0.38;;;;;;;19.95;29.43;99150.09;6208800;23;20354;-92
2023/04/12 12:34:40;;;;;;;0.20;0.20;;;;;;;19.91;28.37;99138.34;6182422;23;20063;-93
2023/04/12 12:37:08;;;;;;;0.17;0.17;;;;;;;19.61;30.30;99104.56;6208370;23;20776;-93
2023/04/12 12:39:35;;;;;;;0.00;0.00;;;;;;;19.95;30.20;99110.69;6182153;23;20020;-91
2023/04/12 12:42:04;;;;;;;5.68;1.10;;;;;;;20.01;28.89;99134.72;6157187;23;20487;-91
2023/04/12 12:44:30;;;;;;;0.05;0.05;;;;;;;19.93;28.66;99147.81;6181539;23;20080;-91
2023/04/12 12:46:58;;;;;;;0.35;0.35;;;;;;;19.73;29.01;99128.50;6157457;23;20039;-91
2023/04/12 12:49:24;;;;;;;0.20;0.10;;;;;;;19.33;29.10;99115.19;6182022;23;20008;-90
2023/04/12 12:51:50;;;;;;;0.10;0.10;;;;;;;19.29;29.43;99140.00;6209239;23;20392;-91
2023/04/12 12:54:16;;;;;;;0.00;0.00;;;;;;;18.93;30.49;99111.75;6180716;23;20055;-92
2023/04/12 12:56:42;;;;;;;0.17;0.10;;;;;;;18.85;30.43;99136.03;6181484;23;20012;-90
2023/04/12 12:59:12;;;;;;;3.53;0.98;;;;;;;19.01;30.55;99109.16;6207561;23;20063;-93
2023/04/12 13:01:38;;;;;;;0.00;0.00;;;;;;;18.85;30.38;99093.91;6156897;23;20094;-89
2023/04/12 13:04:03;;;;;;;1.98;1.00;;;;;;;19.13;30.09;99110.66;6157069;23;20388;-90
2023/04/12 13:06:29;;;;;;;0.20;0.20;;;;;;;19.05;30.83;99092.78;6183661;23;20019;-90
2023/04/12 13:08:55;;;;;;;0.30;0.30;;;;;;;19.48;30.40;99095.94;6134934;23;20017;-90
2023/04/12 13:11:20;;;;;;;0.20;0.20;;;;;;;19.47;29.58;99116.91;6184677;23;20118;-91
2023/04/12 13:13:46;;;;;;;0.10;0.10;;;;;;;19.25;30.12;99083.28;6211490;23;20445;-93
2023/04/12 13:16:17;;;;;;;0.20;0.20;;;;;;;19.02;30.02;99077.75;6208434;23;20009;-92
2023/04/12 13:18:43;;;;;;;1.13;0.47;;;;;;;19.28;30.56;99083.00;6207513;23;20016;-91
2023/04/12 13:21:08;;;;;;;0.10;0.10;;;;;;;19.07;30.19;99068.53;6156271;23;20039;-91
2023/04/12 13:23:34;;;;;;;0.00;0.00;;;;;;;18.98;29.19;99073.66;6181759;23;20009;-94
2023/04/12 13:26:00;;;;;;;0.00;0.00;;;;;;;18.72;29.95;99095.75;6153994;23;20083;-90
2023/04/12 13:28:25;;;;;;;0.00;0.00;;;;;;;18.67;30.81;99080.44;6155560;23;20071;-92
2023/04/12 13:30:51;;;;;;;0.00;0.00;;;;;;;18.54;30.48;99075.38;6178193;23;20468;-92
2023/04/12 13:33:16;;;;;;;0.00;0.00;;;;;;;18.60;30.12;99064.88;6155651;23;20009;-92
2023/04/12 13:35:44;;;;;;;0.20;0.20;;;;;;;18.67;31.40;99069.22;6180300;23;20024;-91
2023/04/12 13:38:09;;;;;;;0.00;0.00;;;;;;;18.55;30.00;99067.72;6156557;23;20112;-92
2023/04/12 13:40:35;;;;;;;0.10;0.10;;;;;;;18.51;30.68;99062.34;6154812;23;20032;-91
2023/04/12 13:43:00;;;;;;;0.10;0.10;;;;;;;18.55;30.79;99062.09;6180798;23;20269;-94
2023/04/12 13:45:26;;;;;;;0.20;0.20;;;;;;;18.43;31.08;99050.09;6179458;23;20043;-86
2023/04/12 13:47:51;;;;;;;0.45;0.45;;;;;;;18.47;31.57;99061.84;6181208;23;20030;-92